Gray Gables, Washington
Current Conditions -  °F | °C
As of 12:53 PM on Thursday 20 Nov 2014 (Local Time) from KHQM Reporting Station
Haze Haze  
Wind Chill: 52°   Ceiling: 2000
Heat Index: 52°   Visibility: 6mi
Dew Point: 49°   Wind: 7mph
Humidity: 89%   Direction: 70°ENE
Pressure: 29.94"   Gusts: NA
Location:  47.0202°N, 123.878°W
Report Text: KHQM 202053Z AUTO 07006KT 6SM BR OVC020 11/09 A2994 RMK AO2 SLP140 T01110094 58007
Loading
Personal Weather Stations






























Interactive Weather Map New forecast layout! Learn more

10-Day Weather Forecast

Advertisements
Track Severe Weather on mobile